createdAt,value
2023-07-14T00:01:24.743Z,101249.38
2023-07-14T00:03:52.447Z,101253.38
2023-07-14T00:06:20.245Z,101243.50
2023-07-14T00:08:48.324Z,101236.56
2023-07-14T00:11:20.712Z,101240.28
2023-07-14T00:13:50.160Z,101231.56
2023-07-14T00:16:22.367Z,101231.56
2023-07-14T00:18:50.085Z,101234.75
2023-07-14T00:21:20.040Z,101226.56
2023-07-14T00:23:47.414Z,101225.56
2023-07-14T00:26:17.058Z,101228.34
2023-07-14T00:28:44.831Z,101230.84
2023-07-14T00:31:14.760Z,101230.47
2023-07-14T00:33:43.964Z,101227.84
2023-07-14T00:36:12.629Z,101223.25
2023-07-14T00:38:40.527Z,101222.19
2023-07-14T00:41:15.374Z,101220.91
2023-07-14T00:43:43.428Z,101225.34
2023-07-14T00:46:23.360Z,101215.94
2023-07-14T00:48:53.279Z,101210.72
2023-07-14T00:51:21.245Z,101218.16
2023-07-14T00:53:48.569Z,101219.06
2023-07-14T00:56:15.832Z,101209.09
2023-07-14T00:58:46.758Z,101208.41
2023-07-14T01:01:24.208Z,101206.91
2023-07-14T01:03:53.637Z,101195.75
2023-07-14T01:06:24.615Z,101191.84
2023-07-14T01:08:57.081Z,101192.97
2023-07-14T01:11:29.896Z,101196.25
2023-07-14T01:13:57.727Z,101185.75
2023-07-14T01:16:25.168Z,101188.03
2023-07-14T01:18:52.644Z,101182.78
2023-07-14T01:21:24.425Z,101187.59
2023-07-14T01:24:11.843Z,101181.81
2023-07-14T01:27:03.801Z,101178.94
2023-07-14T01:29:31.155Z,101166.75
2023-07-14T01:31:58.920Z,101161.72
2023-07-14T01:34:26.463Z,101155.09
2023-07-14T01:36:59.691Z,101153.84
2023-07-14T01:39:28.131Z,101156.72
2023-07-14T01:41:55.392Z,101162.13
2023-07-14T01:44:22.900Z,101156.97
2023-07-14T01:46:50.276Z,101164.69
2023-07-14T01:49:37.802Z,101154.13
2023-07-14T01:52:06.196Z,101150.09
2023-07-14T01:54:39.845Z,101144.28
2023-07-14T01:57:13.899Z,101147.41
2023-07-14T01:59:45.926Z,101143.78
2023-07-14T02:02:34.430Z,101136.34
2023-07-14T02:05:19.994Z,101143.53
2023-07-14T02:07:48.922Z,101136.88
2023-07-14T02:10:20.881Z,101135.06
2023-07-14T02:12:51.130Z,101139.47
2023-07-14T02:15:21.339Z,101131.47
2023-07-14T02:17:48.748Z,101135.56
2023-07-14T02:20:28.952Z,101139.59
2023-07-14T02:22:57.059Z,101136.81
2023-07-14T02:25:27.300Z,101134.25
2023-07-14T02:27:54.729Z,101134.63
2023-07-14T02:30:23.567Z,101137.94
2023-07-14T02:32:54.382Z,101133.81
2023-07-14T02:35:31.999Z,101139.59
2023-07-14T02:38:06.352Z,101134.31
2023-07-14T02:40:37.921Z,101133.81
2023-07-14T02:43:07.329Z,101130.50
2023-07-14T02:45:37.478Z,101129.03
2023-07-14T02:48:06.080Z,101121.06
2023-07-14T02:50:33.668Z,101134.13
2023-07-14T02:53:01.427Z,101133.88
2023-07-14T02:55:28.856Z,101124.69
2023-07-14T02:57:56.427Z,101127.81
2023-07-14T03:00:23.744Z,101118.50
2023-07-14T03:02:51.076Z,101129.66
2023-07-14T03:05:19.204Z,101119.06
2023-07-14T03:07:46.668Z,101117.38
2023-07-14T03:10:14.118Z,101108.78
2023-07-14T03:12:42.800Z,101109.88
2023-07-14T03:15:11.884Z,101101.91
2023-07-14T03:17:39.369Z,101101.50
2023-07-14T03:20:12.462Z,101086.50
2023-07-14T03:22:42.588Z,101087.47
2023-07-14T03:25:11.999Z,101092.84
2023-07-14T03:27:39.319Z,101098.59
2023-07-14T03:30:07.444Z,101098.09
2023-07-14T03:32:34.795Z,101100.50
2023-07-14T03:35:02.343Z,101091.78
2023-07-14T03:37:29.741Z,101088.19
2023-07-14T03:39:57.594Z,101090.31
2023-07-14T03:42:24.941Z,101085.78
2023-07-14T03:44:52.557Z,101082.16
2023-07-14T03:47:19.868Z,101089.47
2023-07-14T03:49:47.338Z,101075.28
2023-07-14T03:52:14.777Z,101070.06
2023-07-14T03:54:42.002Z,101070.69
2023-07-14T03:57:09.532Z,101069.75
2023-07-14T03:59:36.793Z,101069.19
2023-07-14T04:02:04.508Z,101074.00
2023-07-14T04:04:32.287Z,101071.25
2023-07-14T04:07:02.981Z,101080.28
2023-07-14T04:09:30.522Z,101064.53
2023-07-14T04:11:58.794Z,101069.88
2023-07-14T04:14:26.231Z,101065.28
2023-07-14T04:16:53.734Z,101062.91
2023-07-14T04:19:21.355Z,101065.97
2023-07-14T04:21:48.748Z,101069.03
2023-07-14T04:24:16.280Z,101065.47
2023-07-14T04:26:43.709Z,101056.84
2023-07-14T04:29:13.009Z,101069.19
2023-07-14T04:31:41.097Z,101065.97
2023-07-14T04:34:08.505Z,101054.72
2023-07-14T04:36:36.152Z,101056.84
2023-07-14T04:39:08.883Z,101050.53
2023-07-14T04:41:36.572Z,101052.78
2023-07-14T04:44:09.766Z,101043.84
2023-07-14T04:46:38.147Z,101031.81
2023-07-14T04:49:06.283Z,101036.91
2023-07-14T04:51:34.185Z,101039.06
2023-07-14T04:54:01.915Z,101039.97
2023-07-14T04:56:29.380Z,101023.53
2023-07-14T04:58:57.076Z,101019.56
2023-07-14T05:01:24.532Z,101014.16
2023-07-14T05:03:52.026Z,101009.31
2023-07-14T05:06:19.887Z,101004.69
2023-07-14T05:08:49.308Z,101000.41
2023-07-14T05:11:17.815Z,100987.66
2023-07-14T05:13:46.697Z,100980.38
2023-07-14T05:16:14.388Z,100971.91
2023-07-14T05:18:42.005Z,100969.81
2023-07-14T05:21:09.796Z,100963.78
2023-07-14T05:23:37.118Z,100940.19
2023-07-14T05:26:04.592Z,100946.34
2023-07-14T05:28:31.917Z,100961.88
2023-07-14T05:31:01.558Z,100968.75
2023-07-14T05:33:30.320Z,100961.31
2023-07-14T05:35:57.640Z,100964.47
2023-07-14T05:38:25.504Z,100963.75
2023-07-14T05:40:58.389Z,100970.16
2023-07-14T05:43:28.911Z,100973.03
2023-07-14T05:45:56.603Z,100967.69
2023-07-14T05:48:23.967Z,100974.25
2023-07-14T05:50:51.455Z,100966.97
2023-07-14T05:53:19.278Z,100953.25
2023-07-14T05:55:46.980Z,100959.56
2023-07-14T05:58:14.812Z,100966.50
2023-07-14T06:00:43.998Z,100947.75
2023-07-14T06:03:18.068Z,100935.97
2023-07-14T06:05:47.550Z,100921.25
2023-07-14T06:08:14.913Z,100949.19
2023-07-14T06:10:42.345Z,100966.28
2023-07-14T06:13:09.727Z,100961.25
2023-07-14T06:15:38.502Z,100944.75
2023-07-14T06:18:05.962Z,100944.16
2023-07-14T06:20:33.766Z,100963.97
2023-07-14T06:23:01.442Z,100945.50
2023-07-14T06:25:28.843Z,100957.16
2023-07-14T06:27:56.767Z,100969.09
2023-07-14T06:30:26.370Z,100957.28
2023-07-14T06:32:53.799Z,100933.78
2023-07-14T06:35:23.454Z,100908.72
2023-07-14T06:37:50.818Z,100914.69
2023-07-14T06:40:18.227Z,100923.06
2023-07-14T06:42:45.740Z,100928.28
2023-07-14T06:45:13.376Z,100930.75
2023-07-14T06:47:40.779Z,100927.28
2023-07-14T06:50:08.558Z,100922.03
2023-07-14T06:52:39.772Z,100908.09
2023-07-14T06:55:07.646Z,100909.88
2023-07-14T06:57:34.997Z,100906.81
2023-07-14T07:00:02.531Z,100909.63
2023-07-14T07:02:30.221Z,100902.97
2023-07-14T07:04:57.837Z,100899.88
2023-07-14T07:07:25.593Z,100894.81
2023-07-14T07:09:56.323Z,100894.91
2023-07-14T07:12:23.887Z,100890.56
2023-07-14T07:14:51.692Z,100889.72
2023-07-14T07:17:18.912Z,100888.59
2023-07-14T07:19:46.343Z,100886.94
2023-07-14T07:22:13.679Z,100881.97
2023-07-14T07:24:41.056Z,100883.28
2023-07-14T07:27:08.384Z,100887.75
2023-07-14T07:29:35.740Z,100873.84
2023-07-14T07:32:04.505Z,100877.56
2023-07-14T07:34:32.026Z,100879.63
2023-07-14T07:36:59.360Z,100878.06
2023-07-14T07:39:26.678Z,100870.72
2023-07-14T07:41:55.128Z,100872.69
2023-07-14T07:44:22.579Z,100873.84
2023-07-14T07:46:49.984Z,100867.09
2023-07-14T07:49:17.919Z,100856.63
2023-07-14T07:51:45.133Z,100843.47
2023-07-14T07:54:12.430Z,100846.47
2023-07-14T07:56:44.295Z,100841.31
2023-07-14T07:59:18.028Z,100834.56
2023-07-14T08:01:46.878Z,100823.69
2023-07-14T08:04:15.707Z,100824.50
2023-07-14T08:06:44.176Z,100822.91
2023-07-14T08:09:13.335Z,100817.69
2023-07-14T08:11:40.735Z,100809.28
2023-07-14T08:14:14.904Z,100810.91
2023-07-14T08:16:42.278Z,100810.13
2023-07-14T08:19:09.642Z,100822.22
2023-07-14T08:21:39.191Z,100826.25
2023-07-14T08:24:07.810Z,100818.19
2023-07-14T08:26:35.868Z,100824.19
2023-07-14T08:29:04.460Z,100817.38
2023-07-14T08:31:32.213Z,100812.94
2023-07-14T08:34:00.046Z,100812.47
2023-07-14T08:36:27.574Z,100811.69
2023-07-14T08:38:55.722Z,100806.09
2023-07-14T08:41:30.654Z,100805.28
2023-07-14T08:44:26.039Z,100792.38
2023-07-14T08:47:16.797Z,100782.31
2023-07-14T08:50:07.878Z,100777.50
2023-07-14T08:52:36.998Z,100770.50
2023-07-14T08:55:19.929Z,100766.75
2023-07-14T08:57:50.255Z,100760.78
2023-07-14T09:00:38.275Z,100751.91
2023-07-14T09:03:19.940Z,100753.66
2023-07-14T09:05:54.010Z,100747.19
2023-07-14T09:08:30.485Z,100741.09
2023-07-14T09:11:13.299Z,100743.97
2023-07-14T09:13:48.204Z,100734.28
2023-07-14T09:16:19.108Z,100727.38
2023-07-14T09:19:13.900Z,100722.09
2023-07-14T09:21:48.324Z,100728.06
2023-07-14T09:24:32.393Z,100724.03
2023-07-14T09:27:00.068Z,100718.19
2023-07-14T09:29:42.338Z,100720.03
2023-07-14T09:32:23.240Z,100711.66
2023-07-14T09:35:06.896Z,100697.06
2023-07-14T09:37:49.692Z,100707.13
2023-07-14T09:40:25.827Z,100704.75
2023-07-14T09:42:55.707Z,100692.97
2023-07-14T09:45:25.625Z,100701.03
2023-07-14T09:48:07.643Z,100690.47
2023-07-14T09:50:40.040Z,100686.78
2023-07-14T09:53:08.772Z,100674.13
2023-07-14T09:56:03.151Z,100673.47
2023-07-14T09:58:31.978Z,100664.78
2023-07-14T10:01:05.725Z,100669.91
2023-07-14T10:03:45.921Z,100657.34
2023-07-14T10:06:22.306Z,100642.75
2023-07-14T10:08:57.831Z,100647.69
2023-07-14T10:11:29.882Z,100638.16
2023-07-14T10:14:04.323Z,100634.38
2023-07-14T10:16:33.776Z,100640.50
2023-07-14T10:19:07.295Z,100635.19
2023-07-14T10:21:36.351Z,100637.78
2023-07-14T10:24:19.552Z,100633.53
2023-07-14T10:26:53.055Z,100627.34
2023-07-14T10:29:22.373Z,100627.34
2023-07-14T10:32:12.373Z,100615.25
2023-07-14T10:34:48.889Z,100602.91
2023-07-14T10:37:23.106Z,100603.06
2023-07-14T10:39:59.254Z,100607.81
2023-07-14T10:42:31.050Z,100589.66
2023-07-14T10:44:59.406Z,100587.84
2023-07-14T10:47:58.307Z,100582.34
2023-07-14T10:50:35.067Z,100570.69
2023-07-14T10:53:32.584Z,100578.13
2023-07-14T10:56:03.827Z,100569.81
2023-07-14T10:58:40.592Z,100563.13
2023-07-14T11:01:15.983Z,100559.31
2023-07-14T11:03:51.877Z,100547.44
2023-07-14T11:06:23.796Z,100540.09
2023-07-14T11:08:56.966Z,100534.44
2023-07-14T11:11:40.250Z,100540.41
2023-07-14T11:14:10.252Z,100527.19
2023-07-14T11:16:39.870Z,100520.81
2023-07-14T11:19:23.640Z,100522.34
2023-07-14T11:22:21.696Z,100525.84
2023-07-14T11:25:19.123Z,100510.97
2023-07-14T11:28:03.482Z,100514.75
2023-07-14T11:30:41.120Z,100503.59
2023-07-14T11:33:46.842Z,100496.94
2023-07-14T11:36:30.483Z,100489.09
2023-07-14T11:39:08.908Z,100477.78
2023-07-14T11:41:36.504Z,100477.84
2023-07-14T11:44:07.154Z,100477.34
2023-07-14T11:46:34.613Z,100473.66
2023-07-14T11:49:06.179Z,100456.75
2023-07-14T11:51:51.439Z,100458.63
2023-07-14T11:54:26.346Z,100461.97
2023-07-14T11:57:04.597Z,100441.31
2023-07-14T11:59:34.202Z,100455.38
2023-07-14T12:02:31.871Z,100440.56
2023-07-14T12:05:28.419Z,100422.91
2023-07-14T12:08:15.092Z,100428.38
2023-07-14T12:10:42.722Z,100425.72
2023-07-14T12:13:22.811Z,100423.19
2023-07-14T12:15:55.984Z,100410.22
2023-07-14T12:18:23.333Z,100404.03
2023-07-14T12:20:51.949Z,100395.06
2023-07-14T12:23:37.961Z,100387.75
2023-07-14T12:26:10.696Z,100379.56
2023-07-14T12:28:39.425Z,100369.53
2023-07-14T12:31:13.510Z,100366.88
2023-07-14T12:34:01.218Z,100366.91
2023-07-14T12:36:31.211Z,100362.69
2023-07-14T12:38:59.552Z,100356.50
2023-07-14T12:41:33.710Z,100355.50
2023-07-14T12:44:02.324Z,100351.44
2023-07-14T12:46:38.006Z,100338.19
2023-07-14T12:49:25.281Z,100348.94
2023-07-14T12:51:52.818Z,100329.19
2023-07-14T12:54:28.299Z,100327.13
2023-07-14T12:56:59.553Z,100320.81
2023-07-14T12:59:27.195Z,100312.09
2023-07-14T13:01:55.078Z,100311.66
2023-07-14T13:04:23.230Z,100305.53
2023-07-14T13:07:04.670Z,100296.97
2023-07-14T13:09:32.680Z,100291.91
2023-07-14T13:12:00.579Z,100284.72
2023-07-14T13:14:44.336Z,100279.38
2023-07-14T13:17:31.934Z,100274.53
2023-07-14T13:20:27.901Z,100263.56
2023-07-14T13:23:10.719Z,100266.47
2023-07-14T13:25:44.066Z,100246.03
2023-07-14T13:28:28.030Z,100258.47
2023-07-14T13:30:55.961Z,100252.38
2023-07-14T13:33:25.892Z,100261.47
2023-07-14T13:36:09.348Z,100251.78
2023-07-14T13:38:36.600Z,100248.50
2023-07-14T13:41:16.244Z,100231.75
2023-07-14T13:43:45.734Z,100230.03
2023-07-14T13:46:21.542Z,100223.69
2023-07-14T13:48:48.896Z,100223.91
2023-07-14T13:51:22.280Z,100208.13
2023-07-14T13:53:51.125Z,100214.38
2023-07-14T13:56:21.488Z,100207.00
2023-07-14T13:58:50.059Z,100206.06
2023-07-14T14:01:23.506Z,100201.53
2023-07-14T14:03:54.245Z,100197.81
2023-07-14T14:06:22.275Z,100200.41
2023-07-14T14:08:49.714Z,100191.50
2023-07-14T14:11:17.023Z,100183.34
2023-07-14T14:13:44.325Z,100189.25
2023-07-14T14:16:16.104Z,100181.06
2023-07-14T14:18:44.552Z,100172.56
2023-07-14T14:21:13.118Z,100163.19
2023-07-14T14:23:40.563Z,100146.72
2023-07-14T14:26:12.386Z,100145.38
2023-07-14T14:28:40.277Z,100139.34
2023-07-14T14:31:10.844Z,100144.97
2023-07-14T14:33:38.286Z,100133.38
2023-07-14T14:36:05.735Z,100125.50
2023-07-14T14:41:06.494Z,100117.44
2023-07-14T14:43:33.927Z,100117.47
2023-07-14T14:46:01.711Z,100105.34
2023-07-14T14:48:40.359Z,100104.25
2023-07-14T14:51:08.941Z,100105.06
2023-07-14T14:53:36.229Z,100100.69
2023-07-14T14:56:06.150Z,100089.34
2023-07-14T14:58:34.362Z,100086.75
2023-07-14T15:01:06.849Z,100090.50
2023-07-14T15:03:34.222Z,100087.16
2023-07-14T15:06:01.802Z,100077.19
2023-07-14T15:08:29.547Z,100069.91
2023-07-14T15:10:56.902Z,100076.72
2023-07-14T15:13:27.476Z,100060.13
2023-07-14T15:15:59.081Z,100060.09
2023-07-14T15:18:27.144Z,100058.88
2023-07-14T15:20:54.477Z,100055.91
2023-07-14T15:23:22.005Z,100052.59
2023-07-14T15:25:52.711Z,100061.13
2023-07-14T15:28:23.646Z,100045.16
2023-07-14T15:30:51.070Z,100052.28
2023-07-14T15:33:19.337Z,100053.00
2023-07-14T15:35:56.938Z,100043.53
2023-07-14T15:38:24.968Z,100043.53
2023-07-14T15:40:52.603Z,100031.47
2023-07-14T15:43:24.652Z,100042.25
2023-07-14T15:45:56.691Z,100041.31
2023-07-14T15:48:41.126Z,100029.94
2023-07-14T15:51:20.680Z,100026.88
2023-07-14T15:53:48.428Z,100027.41
2023-07-14T15:56:20.355Z,100020.41
2023-07-14T15:58:48.011Z,100010.91
2023-07-14T16:01:28.602Z,100008.41
2023-07-14T16:03:58.973Z,100008.09
2023-07-14T16:06:26.545Z,100000.19
2023-07-14T16:08:55.821Z,100008.56
2023-07-14T16:11:32.752Z,100013.59
2023-07-14T16:14:06.052Z,100010.63
2023-07-14T16:16:34.052Z,100007.16
2023-07-14T16:19:03.078Z,100003.44
2023-07-14T16:21:32.623Z,100008.56
2023-07-14T16:24:01.598Z,99993.53
2023-07-14T16:26:29.206Z,99999.56
2023-07-14T16:28:56.615Z,99985.94
2023-07-14T16:31:25.907Z,99979.44
2023-07-14T16:33:53.449Z,99985.63
2023-07-14T16:36:32.360Z,99987.50
2023-07-14T16:39:10.220Z,99987.50
2023-07-14T16:41:38.018Z,99988.78
2023-07-14T16:44:15.858Z,99986.59
2023-07-14T16:46:51.848Z,99976.13
2023-07-14T16:49:19.736Z,99975.66
2023-07-14T16:51:50.477Z,99976.47
2023-07-14T16:54:30.497Z,99974.22
2023-07-14T16:56:58.538Z,99980.09
2023-07-14T16:59:26.178Z,99975.03
2023-07-14T17:01:53.632Z,99965.38
2023-07-14T17:04:24.533Z,99976.16
2023-07-14T17:06:55.334Z,99970.13
2023-07-14T17:09:27.122Z,99959.66
2023-07-14T17:11:56.503Z,99962.22
2023-07-14T17:14:27.919Z,99968.06
2023-07-14T17:16:55.364Z,99974.53
2023-07-14T17:19:22.832Z,99967.88
2023-07-14T17:21:56.441Z,99962.84
2023-07-14T17:24:26.768Z,99967.91
2023-07-14T17:26:54.465Z,99967.44
2023-07-14T17:29:32.520Z,99956.66
2023-07-14T17:32:03.082Z,99968.69
2023-07-14T17:34:33.028Z,99966.72
2023-07-14T17:37:00.769Z,99975.16
2023-07-14T17:39:40.509Z,99973.66
2023-07-14T17:42:21.432Z,99974.16
2023-07-14T17:44:48.849Z,99971.63
2023-07-14T17:47:16.353Z,99974.94
2023-07-14T17:49:43.688Z,99967.84
2023-07-14T17:52:16.789Z,99965.69
2023-07-14T17:54:45.321Z,99963.75
2023-07-14T17:57:16.475Z,99965.13
2023-07-14T17:59:43.914Z,99960.66
2023-07-14T18:02:21.003Z,99956.56
2023-07-14T18:04:48.445Z,99957.59
2023-07-14T18:07:15.915Z,99954.50
2023-07-14T18:09:43.949Z,99961.22
2023-07-14T18:12:14.699Z,99955.34
2023-07-14T18:14:42.138Z,99960.09
2023-07-14T18:17:14.434Z,99960.72
2023-07-14T18:19:42.260Z,99959.63
2023-07-14T18:22:35.507Z,99962.16
2023-07-14T18:25:14.192Z,99956.31
2023-07-14T18:27:41.580Z,99959.31
2023-07-14T18:30:16.553Z,99954.31
2023-07-14T18:32:44.730Z,99959.50
2023-07-14T18:35:21.225Z,99957.91
2023-07-14T18:37:52.211Z,99957.25
2023-07-14T18:40:23.236Z,99949.69
2023-07-14T18:42:51.256Z,99954.25
2023-07-14T18:45:20.547Z,99949.97
2023-07-14T18:47:47.866Z,99942.72
2023-07-14T18:50:15.277Z,99942.25
2023-07-14T18:52:43.162Z,99944.13
2023-07-14T18:55:18.952Z,99943.19
2023-07-14T18:57:46.502Z,99937.75
2023-07-14T19:00:21.677Z,99938.56
2023-07-14T19:02:49.473Z,99941.88
2023-07-14T19:05:18.337Z,99940.94
2023-07-14T19:07:48.164Z,99934.56
2023-07-14T19:10:16.934Z,99945.81
2023-07-14T19:12:45.917Z,99943.72
2023-07-14T19:15:20.934Z,99946.38
2023-07-14T19:17:49.876Z,99951.97
2023-07-14T19:20:20.221Z,99950.31
2023-07-14T19:22:49.430Z,99954.72
2023-07-14T19:25:22.172Z,99955.66
2023-07-14T19:27:50.733Z,99952.16
2023-07-14T19:30:22.561Z,99957.63
2023-07-14T19:32:54.341Z,99956.28
2023-07-14T19:35:22.115Z,99962.81
2023-07-14T19:37:49.907Z,99962.19
2023-07-14T19:40:20.121Z,99966.22
2023-07-14T19:42:47.565Z,99958.88
2023-07-14T19:45:20.790Z,99963.53
2023-07-14T19:47:49.091Z,99954.34
2023-07-14T19:50:20.972Z,99958.13
2023-07-14T19:52:50.734Z,99971.31
2023-07-14T19:55:28.099Z,99967.22
2023-07-14T19:57:55.968Z,99981.06
2023-07-14T20:00:23.818Z,99977.94
2023-07-14T20:02:52.222Z,99969.91
2023-07-14T20:05:22.596Z,99977.41
2023-07-14T20:07:50.121Z,99979.75
2023-07-14T20:10:23.191Z,99981.03
2023-07-14T20:12:51.228Z,99981.28
2023-07-14T20:15:24.220Z,99993.78
2023-07-14T20:17:52.297Z,99987.94
2023-07-14T20:20:21.141Z,99995.78
2023-07-14T20:22:53.197Z,99990.66
2023-07-14T20:25:21.096Z,99992.88
2023-07-14T20:27:48.456Z,99992.00
2023-07-14T20:30:19.058Z,99991.00
2023-07-14T20:32:50.571Z,99997.16
2023-07-14T20:35:20.848Z,99997.91
2023-07-14T20:37:49.896Z,100001.00
2023-07-14T20:40:21.036Z,100004.19
2023-07-14T20:42:48.439Z,99998.88
2023-07-14T20:45:21.100Z,100003.75
2023-07-14T20:47:49.150Z,100012.47
2023-07-14T20:50:17.381Z,100004.41
2023-07-14T20:52:49.132Z,100008.28
2023-07-14T20:55:24.515Z,100002.16
2023-07-14T20:57:51.949Z,100002.84
2023-07-14T21:00:19.503Z,99998.19
2023-07-14T21:02:47.251Z,100001.25
2023-07-14T21:05:14.613Z,99999.34
2023-07-14T21:07:44.469Z,99997.84
2023-07-14T21:10:18.351Z,99982.75
2023-07-14T21:12:47.161Z,99992.03
2023-07-14T21:15:16.333Z,99978.22
2023-07-14T21:17:46.228Z,99987.03
2023-07-14T21:20:14.538Z,99980.69
2023-07-14T21:22:42.325Z,99980.44
2023-07-14T21:25:15.046Z,99982.00
2023-07-14T21:27:42.318Z,99983.28
2023-07-14T21:30:11.036Z,99977.50
2023-07-14T21:32:40.382Z,99974.78
2023-07-14T21:35:23.661Z,99971.56
2023-07-14T21:37:51.097Z,99975.78
2023-07-14T21:40:18.656Z,99970.47
2023-07-14T21:42:48.473Z,99973.72
2023-07-14T21:45:16.748Z,99970.00
2023-07-14T21:47:44.460Z,99969.88
2023-07-14T21:50:15.213Z,99959.81
2023-07-14T21:52:42.800Z,99957.66
2023-07-14T21:55:15.074Z,99968.06
2023-07-14T21:57:42.687Z,99963.84
2023-07-14T22:00:19.009Z,99967.53
2023-07-14T22:02:46.477Z,99967.53
2023-07-14T22:05:15.456Z,99970.69
2023-07-14T22:07:43.511Z,99973.38
2023-07-14T22:10:16.399Z,99985.44
2023-07-14T22:12:43.968Z,99977.19
2023-07-14T22:15:19.183Z,99978.16
2023-07-14T22:17:46.895Z,99974.91
2023-07-14T22:20:18.196Z,99989.22
2023-07-14T22:22:49.029Z,99990.50
2023-07-14T22:25:16.486Z,99975.34
2023-07-14T22:27:44.466Z,99981.53
2023-07-14T22:30:13.029Z,99984.97
2023-07-14T22:32:43.804Z,99982.13
2023-07-14T22:35:13.360Z,99985.41
2023-07-14T22:37:40.889Z,99990.22
2023-07-14T22:40:13.881Z,99983.69
2023-07-14T22:42:42.794Z,99992.16
2023-07-14T22:45:17.460Z,99987.94
2023-07-14T22:47:45.283Z,99992.63
2023-07-14T22:50:15.067Z,100001.41
2023-07-14T22:52:43.489Z,100003.69
2023-07-14T22:55:21.159Z,100007.03
2023-07-14T22:57:49.531Z,100004.75
2023-07-14T23:00:18.190Z,100003.34
2023-07-14T23:02:49.204Z,99997.84
2023-07-14T23:05:24.580Z,99994.41
2023-07-14T23:07:52.171Z,99997.50
2023-07-14T23:10:19.628Z,99996.69
2023-07-14T23:12:47.032Z,99992.53
2023-07-14T23:15:17.882Z,99994.56
2023-07-14T23:17:46.464Z,100001.50
2023-07-14T23:20:14.633Z,99999.00
2023-07-14T23:22:42.928Z,99994.66
2023-07-14T23:25:17.898Z,100001.66
2023-07-14T23:27:46.527Z,99999.16
2023-07-14T23:30:15.040Z,99988.84
2023-07-14T23:32:42.577Z,100002.53
2023-07-14T23:35:16.700Z,100000.38
2023-07-14T23:37:44.084Z,100014.78
2023-07-14T23:40:14.047Z,100019.22
2023-07-14T23:42:42.009Z,100013.72
2023-07-14T23:45:17.897Z,100008.75
2023-07-14T23:47:45.243Z,100011.66
2023-07-14T23:50:12.925Z,100011.81
2023-07-14T23:52:40.776Z,100004.16
2023-07-14T23:55:14.005Z,100001.50
2023-07-14T23:57:41.316Z,100004.84
